Time;durP1;ratioP1;P1;durP2;ratioP2;P2;SDS_P1;SDS_P2;PMS_P1;PMS_P2;Temp;Humidity;BMP_temperature;BMP_pressure;BME280_temperature;BME280_humidity;BME280_pressure;Samples;Min_cycle;Max_cycle;Signal;HPM_P1;HPM_P2
2021/01/16 00:01:39;;;;;;;14.65;8.90;;;;;;;;;;5054437;28;20200;-76
2021/01/16 00:04:05;;;;;;;15.43;10.67;;;;;;;;;;5054792;28;20180;-76
2021/01/16 00:06:31;;;;;;;13.80;11.35;;;;;;;;;;5055073;28;20469;-76
2021/01/16 00:08:58;;;;;;;15.10;9.88;;;;;;;;;;5054743;28;20546;-77
2021/01/16 00:11:24;;;;;;;15.85;11.45;;;;;;;;;;5055182;28;20279;-76
2021/01/16 00:13:50;;;;;;;17.73;11.73;;;;;;;;;;5054726;28;20253;-77
2021/01/16 00:16:16;;;;;;;14.63;10.73;;;;;;;;;;5054856;28;20222;-77
2021/01/16 00:18:42;;;;;;;15.23;9.00;;;;;;;;;;5054661;28;20557;-76
2021/01/16 00:26:56;;;;;;;14.90;10.93;;;;;;;;;;5054753;28;20518;-76
2021/01/16 00:29:22;;;;;;;19.20;12.03;;;;;;;;;;5053529;28;20200;-76
2021/01/16 00:31:48;;;;;;;14.90;9.83;;;;;;;;;;5054263;28;20893;-76
2021/01/16 00:34:14;;;;;;;18.20;10.63;;;;;;;;;;5054307;28;20789;-75
2021/01/16 00:36:40;;;;;;;13.02;9.90;;;;;;;;;;5054272;28;20415;-76
2021/01/16 00:39:06;;;;;;;13.27;9.77;;;;;;;;;;5036230;28;20208;-76
2021/01/16 00:41:32;;;;;;;12.60;9.65;;;;;;;;;;5054588;28;20425;-77
2021/01/16 00:43:58;;;;;;;13.67;10.70;;;;;;;;;;5054269;28;20172;-75
2021/01/16 00:46:24;;;;;;;15.80;10.15;;;;;;;;;;5054133;28;20951;-76
2021/01/16 00:48:50;;;;;;;16.90;10.60;;;;;;;;;;5054014;28;20242;-76
2021/01/16 00:54:19;;;;;;;13.75;9.00;;;;;;;;;;5053924;28;20418;-76
2021/01/16 00:56:45;;;;;;;15.90;9.20;;;;;;;;;;5053865;28;20184;-77
2021/01/16 00:59:11;;;;;;;12.30;10.05;;;;;;;;;;5053107;28;20750;-76
2021/01/16 01:01:39;;;;;;;13.27;8.73;;;;;;;;;;5053792;28;20539;-76
2021/01/16 01:04:05;;;;;;;16.63;10.20;;;;;;;;;;5053722;28;20172;-76
2021/01/16 01:09:34;;;;;;;10.95;8.73;;;;;;;;;;5053724;28;20696;-77
2021/01/16 01:12:01;;;;;;;14.90;9.80;;;;;;;;;;5053699;28;20256;-76
2021/01/16 01:14:27;;;;;;;13.48;9.95;;;;;;;;;;5052801;28;20787;-77
2021/01/16 01:16:53;;;;;;;15.43;10.50;;;;;;;;;;5053568;28;20168;-76
2021/01/16 01:19:19;;;;;;;13.87;9.63;;;;;;;;;;5053240;28;20746;-76
2021/01/16 01:24:48;;;;;;;13.40;9.25;;;;;;;;;;5053017;28;20418;-76
2021/01/16 01:27:14;;;;;;;15.57;9.80;;;;;;;;;;5053348;28;20527;-76
2021/01/16 01:29:40;;;;;;;12.23;9.60;;;;;;;;;;5052346;28;20466;-76
2021/01/16 01:32:06;;;;;;;14.23;8.63;;;;;;;;;;5053273;28;20497;-76
2021/01/16 01:34:32;;;;;;;16.83;10.32;;;;;;;;;;5053042;28;20415;-76
2021/01/16 01:40:01;;;;;;;15.95;10.05;;;;;;;;;;5053052;28;20465;-75
2021/01/16 01:42:27;;;;;;;12.80;8.57;;;;;;;;;;5052971;28;20683;-77
2021/01/16 01:44:53;;;;;;;16.30;10.60;;;;;;;;;;5052989;28;20411;-76
2021/01/16 01:47:19;;;;;;;15.63;9.57;;;;;;;;;;5052827;28;20421;-75
2021/01/16 01:49:45;;;;;;;18.00;9.70;;;;;;;;;;5052835;28;20552;-76
2021/01/16 01:55:15;;;;;;;19.42;12.05;;;;;;;;;;5053287;28;20482;-78
2021/01/16 01:57:44;;;;;;;14.98;10.25;;;;;;;;;;5053088;28;20579;-76
2021/01/16 02:00:12;;;;;;;15.75;10.10;;;;;;;;;;5052028;28;20686;-76
2021/01/16 02:02:38;;;;;;;17.02;10.45;;;;;;;;;;5052970;28;20185;-76
2021/01/16 02:05:06;;;;;;;14.50;10.88;;;;;;;;;;5052722;28;20250;-76
2021/01/16 02:10:35;;;;;;;15.23;10.02;;;;;;;;;;5052617;28;20227;-76
2021/01/16 02:13:01;;;;;;;18.88;12.30;;;;;;;;;;5052519;28;20168;-75
2021/01/16 02:15:27;;;;;;;15.63;10.73;;;;;;;;;;5052456;28;20180;-77
2021/01/16 02:18:00;;;;;;;16.67;11.07;;;;;;;;;;5052541;28;20222;-76
2021/01/16 02:20:28;;;;;;;14.95;10.40;;;;;;;;;;5052547;28;20415;-77
2021/01/16 02:26:06;;;;;;;16.90;11.23;;;;;;;;;;5052142;28;20171;-76
2021/01/16 02:28:34;;;;;;;18.95;12.02;;;;;;;;;;5051385;28;20626;-76
2021/01/16 02:31:02;;;;;;;17.08;11.70;;;;;;;;;;5052417;28;20534;-76
2021/01/16 02:33:29;;;;;;;15.18;11.07;;;;;;;;;;5052280;28;20191;-76
2021/01/16 02:36:14;;;;;;;16.95;10.55;;;;;;;;;;5052193;28;20194;-76
2021/01/16 02:41:50;;;;;;;17.30;10.80;;;;;;;;;;5052651;28;20649;-75
2021/01/16 02:44:19;;;;;;;16.35;10.48;;;;;;;;;;5052525;28;20275;-76
2021/01/16 02:46:50;;;;;;;19.65;12.07;;;;;;;;;;5052287;28;20191;-76
2021/01/16 02:49:34;;;;;;;17.48;11.13;;;;;;;;;;5051991;28;20215;-76
2021/01/16 02:52:07;;;;;;;23.23;12.88;;;;;;;;;;5034296;28;20638;-77
2021/01/16 02:54:38;;;;;;;17.52;12.35;;;;;;;;;;5052448;28;20214;-76
2021/01/16 02:57:05;;;;;;;19.35;10.93;;;;;;;;;;5052551;28;20233;-77
2021/01/16 02:59:32;;;;;;;19.85;11.52;;;;;;;;;;5051230;28;20229;-77
2021/01/16 03:01:58;;;;;;;14.43;10.40;;;;;;;;;;5052345;28;20181;-77
2021/01/16 03:04:25;;;;;;;22.60;12.75;;;;;;;;;;5052036;28;20175;-76
2021/01/16 03:06:51;;;;;;;15.20;10.77;;;;;;;;;;5052040;28;20243;-76
2021/01/16 03:09:19;;;;;;;17.27;11.48;;;;;;;;;;5051874;28;20206;-76
2021/01/16 03:11:45;;;;;;;16.45;10.82;;;;;;;;;;5052264;28;20198;-76
2021/01/16 03:14:13;;;;;;;19.52;12.57;;;;;;;;;;5051985;28;20172;-76
2021/01/16 03:16:45;;;;;;;20.70;12.68;;;;;;;;;;5051852;28;20513;-75
2021/01/16 03:19:16;;;;;;;20.00;12.27;;;;;;;;;;5052094;28;20299;-76
2021/01/16 03:21:42;;;;;;;22.83;11.15;;;;;;;;;;5051745;28;20290;-75
2021/01/16 03:27:11;;;;;;;21.65;12.98;;;;;;;;;;5051978;28;20433;-76
2021/01/16 03:29:37;;;;;;;18.80;11.70;;;;;;;;;;5050915;28;20215;-76
2021/01/16 03:32:03;;;;;;;21.50;13.97;;;;;;;;;;5051977;28;20538;-75
2021/01/16 03:34:30;;;;;;;21.48;11.80;;;;;;;;;;5051826;28;20414;-75
2021/01/16 03:36:56;;;;;;;18.80;12.10;;;;;;;;;;5052630;28;20195;-76
2021/01/16 03:42:26;;;;;;;21.42;13.93;;;;;;;;;;5055594;28;20692;-76
2021/01/16 03:44:52;;;;;;;16.30;11.20;;;;;;;;;;5055309;28;20159;-76
2021/01/16 03:47:18;;;;;;;24.17;12.40;;;;;;;;;;5055258;28;20472;-75
2021/01/16 03:49:44;;;;;;;20.43;12.60;;;;;;;;;;5052336;28;20203;-76
2021/01/16 03:52:10;;;;;;;23.67;13.50;;;;;;;;;;5055229;28;20411;-76
2021/01/16 03:54:36;;;;;;;17.17;11.67;;;;;;;;;;5054994;28;20425;-75
2021/01/16 03:57:05;;;;;;;20.17;12.35;;;;;;;;;;5054976;28;20415;-77
2021/01/16 03:59:31;;;;;;;18.23;11.93;;;;;;;;;;5054139;28;20223;-76
2021/01/16 04:01:57;;;;;;;19.10;11.87;;;;;;;;;;5054795;28;20183;-77
2021/01/16 04:04:23;;;;;;;24.83;14.00;;;;;;;;;;5054985;28;20419;-77
2021/01/16 04:06:49;;;;;;;17.40;12.30;;;;;;;;;;5054824;28;20411;-77
2021/01/16 04:12:18;;;;;;;18.52;11.50;;;;;;;;;;5054614;28;20500;-76
2021/01/16 04:14:44;;;;;;;18.05;12.55;;;;;;;;;;5054467;28;20208;-76
2021/01/16 04:17:10;;;;;;;18.63;12.37;;;;;;;;;;5036585;28;20210;-76
2021/01/16 04:19:39;;;;;;;19.13;13.15;;;;;;;;;;5054505;28;20796;-77
2021/01/16 04:22:05;;;;;;;20.45;13.23;;;;;;;;;;5036445;28;20222;-76
2021/01/16 04:27:35;;;;;;;22.08;13.10;;;;;;;;;;5054725;28;20166;-76
2021/01/16 04:30:02;;;;;;;20.77;13.57;;;;;;;;;;5053757;28;20202;-75
2021/01/16 04:32:27;;;;;;;22.10;12.43;;;;;;;;;;5054387;28;20230;-76
2021/01/16 04:34:54;;;;;;;24.80;14.30;;;;;;;;;;5054122;28;20167;-76
2021/01/16 04:37:20;;;;;;;20.40;12.38;;;;;;;;;;5054032;28;20399;-75
2021/01/16 04:42:52;;;;;;;24.25;12.73;;;;;;;;;;5053685;28;20414;-77
2021/01/16 04:45:18;;;;;;;20.77;14.43;;;;;;;;;;5054003;28;20255;-76
2021/01/16 04:47:45;;;;;;;20.73;12.20;;;;;;;;;;5054365;28;20243;-75
2021/01/16 04:50:12;;;;;;;20.05;12.40;;;;;;;;;;5054002;28;20294;-75
2021/01/16 04:52:38;;;;;;;23.45;13.82;;;;;;;;;;5054044;28;20198;-76
2021/01/16 04:55:07;;;;;;;19.92;12.55;;;;;;;;;;5053827;28;20164;-76
2021/01/16 04:57:33;;;;;;;24.05;14.90;;;;;;;;;;5053866;28;20528;-75
2021/01/16 05:00:00;;;;;;;23.55;15.15;;;;;;;;;;5053274;28;20259;-76
2021/01/16 05:02:26;;;;;;;27.38;15.10;;;;;;;;;;5053582;28;20220;-76
2021/01/16 05:04:52;;;;;;;21.60;13.90;;;;;;;;;;5053737;28;20179;-76
2021/01/16 05:07:19;;;;;;;25.23;13.68;;;;;;;;;;5053729;28;20411;-76
2021/01/16 05:12:48;;;;;;;21.38;13.23;;;;;;;;;;5053848;28;20181;-75
2021/01/16 05:15:19;;;;;;;22.80;13.43;;;;;;;;;;5053560;28;20251;-76
2021/01/16 05:18:05;;;;;;;26.35;13.65;;;;;;;;;;5053534;28;20419;-76
2021/01/16 05:20:33;;;;;;;23.90;14.27;;;;;;;;;;5053163;28;20199;-76
2021/01/16 05:23:17;;;;;;;21.30;12.20;;;;;;;;;;5053286;28;20168;-77
2021/01/16 05:25:43;;;;;;;22.75;13.60;;;;;;;;;;5053568;28;20480;-76
2021/01/16 05:28:10;;;;;;;24.35;15.05;;;;;;;;;;5052817;28;20164;-76
2021/01/16 05:30:54;;;;;;;21.38;13.48;;;;;;;;;;5053154;28;20237;-76
2021/01/16 05:33:22;;;;;;;25.50;12.65;;;;;;;;;;5035513;28;20266;-76
2021/01/16 05:35:49;;;;;;;24.05;15.70;;;;;;;;;;5053110;28;20209;-77
2021/01/16 05:38:16;;;;;;;21.92;12.27;;;;;;;;;;5052963;28;20168;-76
2021/01/16 05:40:43;;;;;;;30.70;14.88;;;;;;;;;;5053195;28;20210;-76
2021/01/16 05:43:10;;;;;;;29.17;14.07;;;;;;;;;;5053002;28;20480;-75
2021/01/16 05:45:36;;;;;;;20.45;14.98;;;;;;;;;;5052718;28;20175;-76
2021/01/16 05:48:06;;;;;;;24.30;13.52;;;;;;;;;;5035353;28;20168;-76
2021/01/16 05:50:34;;;;;;;25.35;14.48;;;;;;;;;;5052904;28;20269;-76
2021/01/16 05:53:00;;;;;;;26.50;14.55;;;;;;;;;;5052712;28;20168;-76
2021/01/16 05:55:26;;;;;;;19.73;12.80;;;;;;;;;;5052847;28;20200;-76
2021/01/16 05:58:03;;;;;;;20.08;12.23;;;;;;;;;;5052849;28;20186;-75
2021/01/16 06:00:33;;;;;;;24.25;13.55;;;;;;;;;;5052020;28;20238;-76
2021/01/16 06:03:00;;;;;;;20.08;13.70;;;;;;;;;;5052683;28;20167;-75
2021/01/16 06:05:26;;;;;;;24.95;13.23;;;;;;;;;;5052341;28;20182;-75
2021/01/16 06:07:53;;;;;;;20.80;14.15;;;;;;;;;;5052492;28;20167;-76
2021/01/16 06:13:24;;;;;;;25.10;13.80;;;;;;;;;;5052720;28;20175;-75
2021/01/16 06:15:51;;;;;;;25.45;13.77;;;;;;;;;;5034731;28;20264;-77
2021/01/16 06:18:31;;;;;;;21.90;12.98;;;;;;;;;;5052523;28;20248;-77
2021/01/16 06:20:57;;;;;;;20.88;13.00;;;;;;;;;;5052583;28;20199;-77
2021/01/16 06:23:24;;;;;;;26.98;15.25;;;;;;;;;;5052585;28;20169;-76
2021/01/16 06:25:52;;;;;;;20.73;13.38;;;;;;;;;;5052489;28;20193;-76
2021/01/16 06:28:19;;;;;;;22.10;14.23;;;;;;;;;;5052158;28;20183;-76
2021/01/16 06:30:46;;;;;;;24.55;15.30;;;;;;;;;;5052139;28;20561;-76
2021/01/16 06:33:20;;;;;;;29.63;15.52;;;;;;;;;;5052680;28;20192;-76
2021/01/16 06:35:54;;;;;;;25.65;15.25;;;;;;;;;;5052512;28;20560;-77
2021/01/16 06:38:31;;;;;;;22.80;14.10;;;;;;;;;;5052602;28;20192;-77
2021/01/16 06:41:10;;;;;;;20.55;13.15;;;;;;;;;;5052457;28;20172;-76
2021/01/16 06:43:38;;;;;;;23.17;13.85;;;;;;;;;;5051758;28;20522;-76
2021/01/16 06:46:07;;;;;;;22.65;14.90;;;;;;;;;;5052541;28;20204;-76
2021/01/16 06:48:43;;;;;;;23.38;13.50;;;;;;;;;;5052365;28;20191;-76
2021/01/16 06:51:11;;;;;;;28.00;14.18;;;;;;;;;;5052421;28;20178;-75
2021/01/16 06:53:37;;;;;;;25.90;14.10;;;;;;;;;;5051856;28;20263;-76
2021/01/16 06:56:04;;;;;;;18.75;12.52;;;;;;;;;;5052406;28;20529;-75
2021/01/16 06:58:37;;;;;;;23.95;13.45;;;;;;;;;;5051557;28;20173;-78
2021/01/16 07:01:03;;;;;;;22.73;13.82;;;;;;;;;;5051782;28;20251;-75
2021/01/16 07:03:30;;;;;;;21.95;12.73;;;;;;;;;;5052072;28;20175;-76
2021/01/16 07:05:56;;;;;;;22.48;13.40;;;;;;;;;;5052061;28;20248;-75
2021/01/16 07:08:22;;;;;;;19.20;13.25;;;;;;;;;;5049240;28;20204;-76
2021/01/16 07:10:49;;;;;;;20.45;12.52;;;;;;;;;;5033644;28;20223;-77
2021/01/16 07:13:18;;;;;;;25.35;12.95;;;;;;;;;;5054976;28;20169;-75
2021/01/16 07:15:46;;;;;;;23.85;14.15;;;;;;;;;;5055782;28;20251;-76
2021/01/16 07:18:12;;;;;;;19.67;12.15;;;;;;;;;;5056055;28;20526;-76
2021/01/16 07:20:41;;;;;;;22.08;12.43;;;;;;;;;;5055970;28;20179;-76
2021/01/16 07:23:07;;;;;;;22.92;13.02;;;;;;;;;;5055884;28;20234;-76
2021/01/16 07:28:37;;;;;;;18.48;10.50;;;;;;;;;;5054714;28;20417;-76
2021/01/16 07:31:03;;;;;;;20.63;11.95;;;;;;;;;;5055524;28;20216;-75
2021/01/16 07:33:29;;;;;;;26.67;14.82;;;;;;;;;;5055498;28;20171;-77
2021/01/16 07:35:58;;;;;;;17.45;12.40;;;;;;;;;;5055478;28;20577;-77
2021/01/16 07:38:26;;;;;;;19.38;12.27;;;;;;;;;;5055378;28;20585;-76
2021/01/16 07:44:00;;;;;;;19.30;10.45;;;;;;;;;;5055338;28;20163;-76
2021/01/16 07:46:29;;;;;;;17.63;11.98;;;;;;;;;;5055137;28;20254;-75
2021/01/16 07:48:59;;;;;;;23.00;11.75;;;;;;;;;;5054838;28;20172;-76
2021/01/16 07:51:27;;;;;;;22.05;12.65;;;;;;;;;;5055012;28;20229;-76
2021/01/16 07:53:56;;;;;;;17.65;13.15;;;;;;;;;;5054863;28;20551;-75
2021/01/16 07:56:34;;;;;;;17.50;11.77;;;;;;;;;;5055188;28;20176;-76
2021/01/16 07:59:19;;;;;;;16.90;11.98;;;;;;;;;;5054301;28;20171;-77
2021/01/16 08:01:53;;;;;;;17.90;11.35;;;;;;;;;;5054998;28;20183;-75
2021/01/16 08:04:23;;;;;;;20.33;11.77;;;;;;;;;;5054912;28;20250;-76
2021/01/16 08:07:09;;;;;;;19.52;11.55;;;;;;;;;;5054822;28;20630;-79
2021/01/16 08:09:50;;;;;;;19.65;11.80;;;;;;;;;;5054593;28;20696;-76
2021/01/16 08:12:17;;;;;;;19.10;11.25;;;;;;;;;;5054655;28;20254;-76
2021/01/16 08:14:43;;;;;;;20.08;13.32;;;;;;;;;;5054698;28;20176;-77
2021/01/16 08:17:13;;;;;;;19.35;12.35;;;;;;;;;;5054521;28;20165;-75
2021/01/16 08:19:58;;;;;;;18.08;11.80;;;;;;;;;;5054632;28;20179;-76
2021/01/16 08:22:24;;;;;;;17.88;11.70;;;;;;;;;;5054411;28;20160;-78
2021/01/16 08:25:16;;;;;;;21.70;12.35;;;;;;;;;;5054477;28;20173;-76
2021/01/16 08:27:47;;;;;;;20.35;12.43;;;;;;;;;;5051670;28;20251;-77
2021/01/16 08:30:15;;;;;;;16.20;10.73;;;;;;;;;;5053446;28;20208;-75
2021/01/16 08:32:59;;;;;;;20.70;11.35;;;;;;;;;;5054468;28;20192;-77
2021/01/16 08:35:28;;;;;;;17.77;11.27;;;;;;;;;;5054475;28;20200;-76
2021/01/16 08:37:54;;;;;;;18.70;11.40;;;;;;;;;;5054500;28;20175;-76
2021/01/16 08:40:37;;;;;;;22.67;12.32;;;;;;;;;;5053983;28;20172;-76
2021/01/16 08:43:03;;;;;;;19.73;11.35;;;;;;;;;;5054354;28;20614;-76
2021/01/16 08:45:29;;;;;;;16.20;11.90;;;;;;;;;;5054180;28;20273;-77
2021/01/16 08:47:56;;;;;;;17.27;11.10;;;;;;;;;;5054292;28;20167;-77
2021/01/16 08:50:27;;;;;;;19.50;13.02;;;;;;;;;;5036168;28;20215;-76
2021/01/16 08:52:53;;;;;;;17.20;12.20;;;;;;;;;;5054254;28;20526;-77
2021/01/16 08:55:25;;;;;;;17.50;11.70;;;;;;;;;;5036171;28;20618;-77
2021/01/16 08:57:51;;;;;;;25.10;12.60;;;;;;;;;;5054155;28;20526;-77
2021/01/16 09:00:18;;;;;;;25.52;12.95;;;;;;;;;;5053128;28;20655;-76
2021/01/16 09:03:04;;;;;;;19.45;11.98;;;;;;;;;;5053848;28;20215;-77
2021/01/16 09:05:32;;;;;;;19.70;12.80;;;;;;;;;;5053964;28;20223;-78
2021/01/16 09:07:58;;;;;;;17.60;11.45;;;;;;;;;;5054062;28;20172;-75
2021/01/16 09:10:24;;;;;;;19.88;11.65;;;;;;;;;;5053298;28;20520;-76
2021/01/16 09:12:50;;;;;;;15.45;11.45;;;;;;;;;;5035794;28;20179;-76
2021/01/16 09:15:24;;;;;;;17.95;11.48;;;;;;;;;;5053537;28;20442;-76
2021/01/16 09:18:03;;;;;;;17.55;11.20;;;;;;;;;;5053466;28;20250;-77
2021/01/16 09:20:30;;;;;;;17.90;12.60;;;;;;;;;;5053640;28;20184;-76
2021/01/16 09:22:56;;;;;;;20.98;13.13;;;;;;;;;;5035679;28;20769;-75
2021/01/16 09:25:22;;;;;;;17.23;11.07;;;;;;;;;;5053240;28;20205;-76
2021/01/16 09:27:50;;;;;;;14.30;9.65;;;;;;;;;;5053296;28;20446;-76
2021/01/16 09:30:22;;;;;;;14.10;11.45;;;;;;;;;;5052662;28;20207;-76
2021/01/16 09:32:49;;;;;;;14.55;10.30;;;;;;;;;;5053428;28;20160;-76
2021/01/16 09:35:33;;;;;;;17.00;10.05;;;;;;;;;;5052858;28;20274;-76
2021/01/16 09:38:00;;;;;;;13.02;9.05;;;;;;;;;;5053176;28;20211;-76
2021/01/16 09:40:34;;;;;;;13.75;10.20;;;;;;;;;;5053118;28;20165;-76
2021/01/16 09:43:12;;;;;;;14.90;10.10;;;;;;;;;;5053580;28;20167;-76
2021/01/16 09:45:49;;;;;;;13.68;10.10;;;;;;;;;;5053194;28;20643;-76
2021/01/16 09:48:41;;;;;;;13.80;9.52;;;;;;;;;;5053526;28;20554;-76
2021/01/16 09:51:08;;;;;;;18.33;9.95;;;;;;;;;;5053294;28;20219;-77
2021/01/16 09:53:34;;;;;;;11.98;9.35;;;;;;;;;;5052861;28;20172;-75
2021/01/16 09:56:00;;;;;;;14.23;10.30;;;;;;;;;;5052786;28;20533;-76
2021/01/16 09:58:39;;;;;;;15.40;9.98;;;;;;;;;;5052298;28;20172;-78
2021/01/16 10:01:15;;;;;;;16.10;9.75;;;;;;;;;;5052739;28;20247;-78
2021/01/16 10:03:42;;;;;;;15.70;9.70;;;;;;;;;;5053102;28;20567;-78
2021/01/16 10:06:08;;;;;;;15.77;10.75;;;;;;;;;;5053030;28;20172;-76
2021/01/16 10:08:34;;;;;;;14.60;9.38;;;;;;;;;;5052713;28;20230;-78
2021/01/16 10:11:03;;;;;;;13.73;10.15;;;;;;;;;;5052783;28;20250;-78
2021/01/16 10:13:34;;;;;;;13.55;9.68;;;;;;;;;;5034760;28;20179;-76
2021/01/16 10:16:01;;;;;;;14.90;9.70;;;;;;;;;;5052776;28;20558;-77
2021/01/16 10:18:28;;;;;;;17.58;9.80;;;;;;;;;;5053187;28;20184;-77
2021/01/16 10:21:01;;;;;;;18.27;9.07;;;;;;;;;;5052877;28;20165;-76
2021/01/16 10:23:28;;;;;;;16.20;9.02;;;;;;;;;;5052738;28;20190;-78
2021/01/16 10:25:59;;;;;;;12.80;9.25;;;;;;;;;;5052449;28;20168;-77
2021/01/16 10:28:26;;;;;;;11.73;8.07;;;;;;;;;;5052008;28;20172;-77
2021/01/16 10:30:58;;;;;;;15.77;9.02;;;;;;;;;;5053677;28;20232;-77
2021/01/16 10:33:24;;;;;;;13.00;8.63;;;;;;;;;;5053383;28;20167;-76
2021/01/16 10:36:03;;;;;;;13.35;8.60;;;;;;;;;;5052361;28;20169;-77
2021/01/16 10:38:43;;;;;;;14.40;9.35;;;;;;;;;;5052628;28;20172;-77
2021/01/16 10:41:10;;;;;;;12.85;9.18;;;;;;;;;;5052567;28;20614;-78
2021/01/16 10:43:36;;;;;;;9.45;7.75;;;;;;;;;;5052499;28;20247;-77
2021/01/16 10:46:06;;;;;;;11.15;8.48;;;;;;;;;;5053784;28;20161;-78
2021/01/16 10:48:33;;;;;;;13.38;7.97;;;;;;;;;;5056536;28;20183;-77
2021/01/16 10:51:00;;;;;;;13.63;8.80;;;;;;;;;;5056475;28;20562;-76
2021/01/16 10:53:36;;;;;;;12.80;8.32;;;;;;;;;;5056541;28;20173;-78
2021/01/16 10:56:29;;;;;;;10.43;7.50;;;;;;;;;;5056380;28;20178;-76
2021/01/16 10:59:11;;;;;;;8.35;6.95;;;;;;;;;;5051353;28;20188;-78
2021/01/16 11:01:49;;;;;;;7.70;6.60;;;;;;;;;;5056335;28;20184;-78
2021/01/16 11:04:23;;;;;;;10.55;7.43;;;;;;;;;;5056526;28;20184;-76
2021/01/16 11:06:50;;;;;;;10.25;7.60;;;;;;;;;;5056532;28;20305;-77
2021/01/16 11:09:34;;;;;;;10.68;8.10;;;;;;;;;;5056090;28;20235;-78
2021/01/16 11:12:03;;;;;;;8.55;5.70;;;;;;;;;;5038281;28;20184;-77
2021/01/16 11:14:43;;;;;;;9.20;7.10;;;;;;;;;;5056136;28;20305;-78
2021/01/16 11:17:10;;;;;;;8.15;6.93;;;;;;;;;;5038279;28;20183;-76
2021/01/16 11:19:37;;;;;;;9.40;6.27;;;;;;;;;;5056002;28;20191;-76
2021/01/16 11:22:07;;;;;;;7.17;5.93;;;;;;;;;;5055894;28;20407;-77
2021/01/16 11:24:54;;;;;;;7.57;5.70;;;;;;;;;;5055780;28;20429;-79
2021/01/16 11:27:22;;;;;;;7.47;6.20;;;;;;;;;;5055654;28;20411;-79
2021/01/16 11:29:48;;;;;;;7.10;5.07;;;;;;;;;;5054799;28;20490;-78
2021/01/16 11:32:15;;;;;;;5.00;4.50;;;;;;;;;;5055888;28;20418;-78
2021/01/16 11:35:04;;;;;;;6.70;5.90;;;;;;;;;;5055706;28;20453;-77
2021/01/16 11:37:46;;;;;;;5.33;4.80;;;;;;;;;;5042925;28;20476;-77
2021/01/16 11:43:15;;;;;;;4.03;2.73;;;;;;;;;;5055847;28;20860;-78
2021/01/16 11:45:41;;;;;;;5.03;2.97;;;;;;;;;;5055480;28;20434;-77
2021/01/16 11:48:09;;;;;;;2.97;2.40;;;;;;;;;;5055567;28;20767;-78
2021/01/16 11:50:36;;;;;;;2.93;2.60;;;;;;;;;;5055670;28;20466;-75
2021/01/16 11:53:11;;;;;;;2.60;2.30;;;;;;;;;;5055418;28;20768;-78
2021/01/16 11:58:41;;;;;;;2.77;2.57;;;;;;;;;;5054200;28;20457;-77
2021/01/16 12:01:07;;;;;;;5.40;2.53;;;;;;;;;;5055164;28;20565;-77
2021/01/16 12:03:33;;;;;;;2.80;2.60;;;;;;;;;;5037434;28;20502;-78
2021/01/16 12:06:09;;;;;;;4.13;3.73;;;;;;;;;;5055331;28;20445;-77
2021/01/16 12:08:38;;;;;;;3.70;3.40;;;;;;;;;;5055329;28;20865;-78
2021/01/16 12:14:07;;;;;;;5.07;4.60;;;;;;;;;;5055109;28;20920;-78
2021/01/16 12:16:34;;;;;;;5.27;4.77;;;;;;;;;;5055301;28;20796;-78
2021/01/16 12:19:00;;;;;;;5.47;4.20;;;;;;;;;;5055005;28;20446;-78
2021/01/16 12:21:26;;;;;;;4.20;3.90;;;;;;;;;;5055073;28;20407;-78
2021/01/16 12:23:55;;;;;;;4.40;3.80;;;;;;;;;;5054779;28;20423;-78
2021/01/16 12:29:36;;;;;;;4.23;3.60;;;;;;;;;;5053940;28;20457;-78
2021/01/16 12:32:04;;;;;;;4.03;3.70;;;;;;;;;;5054662;28;20965;-78
2021/01/16 12:34:30;;;;;;;4.47;4.10;;;;;;;;;;5054806;28;20403;-80
2021/01/16 12:36:57;;;;;;;8.43;4.27;;;;;;;;;;5054277;28;20442;-79
2021/01/16 12:39:23;;;;;;;5.23;4.23;;;;;;;;;;5054170;28;20534;-78
2021/01/16 12:45:02;;;;;;;8.90;3.67;;;;;;;;;;5054582;28;20414;-78
2021/01/16 12:47:29;;;;;;;5.80;4.50;;;;;;;;;;5054923;28;20475;-77
2021/01/16 12:49:56;;;;;;;6.00;3.77;;;;;;;;;;5052098;28;20451;-75
2021/01/16 12:52:24;;;;;;;4.33;3.40;;;;;;;;;;5053837;28;20422;-76
2021/01/16 12:55:01;;;;;;;5.17;4.03;;;;;;;;;;5053334;28;20489;-77
2021/01/16 12:57:36;;;;;;;8.03;4.00;;;;;;;;;;5053677;28;20510;-78
2021/01/16 13:00:05;;;;;;;6.67;4.47;;;;;;;;;;5053392;28;20485;-77
2021/01/16 13:02:31;;;;;;;3.83;3.30;;;;;;;;;;5053421;28;20754;-76
2021/01/16 13:05:04;;;;;;;4.45;3.35;;;;;;;;;;5053451;28;20413;-77
2021/01/16 13:07:34;;;;;;;4.75;4.00;;;;;;;;;;5053537;28;20474;-76
2021/01/16 13:10:05;;;;;;;4.57;3.95;;;;;;;;;;5052182;28;20559;-77
2021/01/16 13:15:46;;;;;;;4.18;3.55;;;;;;;;;;5053663;28;20186;-77
2021/01/16 13:18:20;;;;;;;7.32;4.57;;;;;;;;;;5053218;28;20217;-77
2021/01/16 13:20:54;;;;;;;5.10;3.60;;;;;;;;;;5052927;28;20625;-77
2021/01/16 13:23:39;;;;;;;4.32;3.10;;;;;;;;;;5053042;28;20294;-76
2021/01/16 13:26:07;;;;;;;3.83;3.33;;;;;;;;;;5053205;28;20524;-76
2021/01/16 13:28:43;;;;;;;4.30;3.65;;;;;;;;;;5053054;28;20199;-77
2021/01/16 13:31:11;;;;;;;5.63;3.15;;;;;;;;;;5052980;28;20205;-77
2021/01/16 13:33:38;;;;;;;4.88;3.05;;;;;;;;;;5052980;28;20230;-77
2021/01/16 13:36:13;;;;;;;5.15;4.15;;;;;;;;;;5052891;28;20168;-77
2021/01/16 13:38:40;;;;;;;3.80;3.17;;;;;;;;;;5052913;28;20164;-77
2021/01/16 13:41:07;;;;;;;5.07;4.00;;;;;;;;;;5052767;28;20179;-76
2021/01/16 13:43:40;;;;;;;4.45;4.05;;;;;;;;;;5052437;28;20250;-76
2021/01/16 13:46:07;;;;;;;4.95;3.95;;;;;;;;;;5034798;28;20180;-76
2021/01/16 13:48:37;;;;;;;5.15;4.63;;;;;;;;;;5052224;28;20176;-76
2021/01/16 13:51:18;;;;;;;6.75;4.43;;;;;;;;;;5051784;28;20208;-75
2021/01/16 13:53:51;;;;;;;5.30;3.60;;;;;;;;;;5052288;28;20187;-75
2021/01/16 13:56:17;;;;;;;4.22;3.83;;;;;;;;;;5052482;28;20176;-79
2021/01/16 13:58:43;;;;;;;5.97;5.15;;;;;;;;;;5052158;28;20267;-75
2021/01/16 14:01:09;;;;;;;5.05;4.05;;;;;;;;;;5051881;28;20232;-76
2021/01/16 14:03:36;;;;;;;6.30;3.53;;;;;;;;;;5052505;28;20224;-76
2021/01/16 14:06:02;;;;;;;4.72;3.80;;;;;;;;;;5052267;28;20416;-77
2021/01/16 14:08:29;;;;;;;5.65;4.25;;;;;;;;;;5034236;28;20643;-77
2021/01/16 14:11:02;;;;;;;5.60;3.78;;;;;;;;;;5034299;28;20224;-77
2021/01/16 14:13:35;;;;;;;6.20;3.90;;;;;;;;;;5033931;28;20172;-76
2021/01/16 14:16:04;;;;;;;5.30;3.95;;;;;;;;;;5051848;28;20176;-77
2021/01/16 14:18:34;;;;;;;4.47;4.07;;;;;;;;;;5034350;28;20208;-76
2021/01/16 14:21:01;;;;;;;5.55;4.25;;;;;;;;;;5051434;28;20515;-76
2021/01/16 14:23:28;;;;;;;7.00;4.40;;;;;;;;;;5051933;28;20179;-76
2021/01/16 14:31:44;;;;;;;5.63;4.35;;;;;;;;;;5052001;28;20716;-74
2021/01/16 14:34:11;;;;;;;7.55;5.15;;;;;;;;;;5051918;28;20211;-77
2021/01/16 14:36:37;;;;;;;5.38;4.88;;;;;;;;;;5051795;28;20187;-75
2021/01/16 14:39:07;;;;;;;6.40;4.25;;;;;;;;;;5051482;28;20165;-76
2021/01/16 14:41:43;;;;;;;8.20;5.32;;;;;;;;;;5051492;28;20558;-76
2021/01/16 14:44:13;;;;;;;6.68;5.28;;;;;;;;;;5051358;28;20512;-76
2021/01/16 14:46:39;;;;;;;8.57;5.28;;;;;;;;;;5051475;28;20227;-75
2021/01/16 14:49:09;;;;;;;7.70;5.85;;;;;;;;;;5051059;28;20160;-75
2021/01/16 14:51:39;;;;;;;7.63;5.53;;;;;;;;;;5051038;28;20175;-77
2021/01/16 14:54:06;;;;;;;6.60;5.45;;;;;;;;;;5050786;28;20247;-75
2021/01/16 14:56:45;;;;;;;6.13;4.68;;;;;;;;;;5051092;28;20202;-76
2021/01/16 14:59:11;;;;;;;6.95;5.05;;;;;;;;;;5050855;28;20214;-76
2021/01/16 15:01:38;;;;;;;6.07;5.47;;;;;;;;;;5051105;28;20176;-76
2021/01/16 15:04:05;;;;;;;8.00;5.13;;;;;;;;;;5050909;28;20418;-75
2021/01/16 15:06:40;;;;;;;8.45;6.07;;;;;;;;;;5050454;28;20172;-76
2021/01/16 15:09:06;;;;;;;7.70;5.32;;;;;;;;;;5050431;28;20238;-76
2021/01/16 15:11:32;;;;;;;6.47;5.77;;;;;;;;;;5050997;28;20176;-76
2021/01/16 15:13:59;;;;;;;8.02;5.50;;;;;;;;;;5032820;28;20431;-75
2021/01/16 15:16:25;;;;;;;9.13;5.68;;;;;;;;;;5050951;28;20176;-76
2021/01/16 15:18:51;;;;;;;8.50;7.22;;;;;;;;;;5051180;28;20168;-76
2021/01/16 15:21:18;;;;;;;14.38;10.30;;;;;;;;;;5050881;28;20180;-75
2021/01/16 15:23:44;;;;;;;14.85;10.13;;;;;;;;;;5050492;28;20316;-75
2021/01/16 15:26:09;;;;;;;18.63;12.67;;;;;;;;;;5050844;28;20176;-76
2021/01/16 15:31:43;;;;;;;18.02;11.40;;;;;;;;;;5050664;28;20515;-77
2021/01/16 15:34:09;;;;;;;15.88;12.07;;;;;;;;;;5035394;28;20176;-76
2021/01/16 15:36:35;;;;;;;22.17;13.20;;;;;;;;;;5054157;28;20534;-75
2021/01/16 15:39:04;;;;;;;35.53;19.50;;;;;;;;;;5053987;28;20176;-77
2021/01/16 15:41:37;;;;;;;21.58;14.05;;;;;;;;;;5054416;28;20423;-77
2021/01/16 15:44:04;;;;;;;20.67;13.57;;;;;;;;;;5053646;28;20199;-75
2021/01/16 15:46:30;;;;;;;20.70;13.60;;;;;;;;;;5036384;28;20176;-75
2021/01/16 15:49:00;;;;;;;17.13;12.80;;;;;;;;;;5053956;28;20173;-75
2021/01/16 15:51:38;;;;;;;21.15;12.57;;;;;;;;;;5054061;28;20180;-76
2021/01/16 15:54:06;;;;;;;19.73;11.15;;;;;;;;;;5053900;28;20164;-76
2021/01/16 15:56:33;;;;;;;23.40;13.13;;;;;;;;;;5054222;28;20275;-75
2021/01/16 15:59:00;;;;;;;19.65;14.20;;;;;;;;;;5053866;28;20172;-76
2021/01/16 16:01:27;;;;;;;22.63;12.80;;;;;;;;;;5053776;28;20236;-76
2021/01/16 16:03:57;;;;;;;18.20;12.25;;;;;;;;;;5053914;28;20576;-76